Naikaimaru No.25 — JD2137 — position and weather

sailwx.info

Track history (hours):
 
Tides and Currents Weather Stations Pressure Air Temp Water Temp Dewpoint Dewpoint Depression Visibility Wind Speed Wind Dir Waves Ship Positions

Naikaimaru No.25

Last reported at 2018-Jan-19 07:00 UTC. Time now 2018-Jan-19 07:14 UTC.
Position N 34°06' E 132°23'.

Length 104 m; draft 6.2 m.

Type: Tanker. MMSI: 431501829.

Date/timePositionNaut miles runAvg speedWind from/ knotsBaromVisibWave heightAir tempDewpointWater temp
2018-Jan-19 07:00N 34°06' E 132°23'714.1
2018-Jan-19 06:31N 34°11' E 132°16'2 3.4
2018-Jan-19 06:00N 34°12' E 132°15'0 0.0
2018-Jan-19 05:31N 34°12' E 132°15'0 0.0
2018-Jan-19 01:21N 34°12' E 132°15'0 0.0
2018-Jan-19 00:57N 34°12' E 132°15'0 0.0
2018-Jan-19 00:27N 34°12' E 132°15'0 0.0
2018-Jan-18 23:57N 34°12' E 132°15'0 0.3
2018-Jan-18 23:29N 34°12' E 132°15'2 3.3
2018-Jan-18 23:00N 34°11' E 132°16'0 0.1
2018-Jan-18 22:26N 34°11' E 132°17'0 0.1
2018-Jan-18 21:59N 34°11' E 132°16'0 0.1
2018-Jan-18 21:29N 34°11' E 132°17'0 0.1
2018-Jan-18 20:59N 34°11' E 132°16'0 0.0
2018-Jan-18 20:29N 34°11' E 132°16'0 0.0
2018-Jan-18 19:50N 34°11' E 132°16'0 0.0
2018-Jan-18 19:29N 34°11' E 132°16'0 0.0
2018-Jan-18 18:59N 34°11' E 132°16'0 0.0
2018-Jan-18 18:29N 34°11' E 132°16'0 0.1
2018-Jan-18 17:59N 34°11' E 132°17'0 0.1
2018-Jan-18 17:29N 34°11' E 132°16'0 0.0
2018-Jan-18 16:59N 34°11' E 132°16'0 0.0
2018-Jan-18 16:29N 34°11' E 132°16'0 0.0
2018-Jan-18 15:56N 34°11' E 132°16'0 0.0
2018-Jan-18 15:29N 34°11' E 132°16'0 0.0
2018-Jan-18 14:50N 34°11' E 132°16'0 0.0
2018-Jan-18 14:23N 34°11' E 132°16'0 0.0
2018-Jan-18 13:59N 34°11' E 132°16'0 0.1
2018-Jan-18 13:26N 34°11' E 132°17'0 0.0
2018-Jan-18 12:59N 34°11' E 132°17'0 0.0
2018-Jan-18 12:29N 34°11' E 132°17'0 0.0
2018-Jan-18 11:56N 34°11' E 132°17'0 0.1
2018-Jan-18 11:31N 34°11' E 132°17'612.6
2018-Jan-18 11:00N 34°07' E 132°22'714.7
2018-Jan-18 10:30N 34°02' E 132°28'714.3
2018-Jan-18 10:00N 34°04' E 132°37'713.2
2018-Jan-18 09:30N 34°05' E 132°45'  
2018-Jan-12 07:31N 34°42' E 139°36'515.9
2018-Jan-12 07:13N 34°40' E 139°31'316.2
2018-Jan-12 07:00N 34°38' E 139°27'815.4
2018-Jan-12 06:30N 34°35' E 139°18'815.5
2018-Jan-12 06:00N 34°34' E 139°09'815.6
2018-Jan-12 05:30N 34°32' E 139°00'1315.3
2018-Jan-12 04:39N 34°28' E 138°45'215.7
2018-Jan-12 04:30N 34°28' E 138°42'915.6
2018-Jan-12 03:57N 34°25' E 138°32'714.9
2018-Jan-12 03:30N 34°23' E 138°24'1713.8
2018-Jan-12 02:15N 34°17' E 138°05'15411.6
2018-Jan-11 12:59N 33°52' E 135°01'714.5
2018-Jan-11 12:30N 33°59' E 135°00'714.2
2018-Jan-11 12:01N 34°06' E 134°60'714.3
2018-Jan-11 11:30N 34°13' E 134°59'714.5
2018-Jan-11 11:01N 34°20' E 134°60'713.6
2018-Jan-11 10:31N 34°25' E 135°06'713.5
2018-Jan-11 10:00N 34°29' E 135°13'713.2
2018-Jan-11 09:30N 34°32' E 135°20'4 7.8
2018-Jan-11 09:00N 34°32' E 135°24'0 0.1
2018-Jan-11 08:30N 34°32' E 135°24'0 0.0
2018-Jan-11 07:59N 34°32' E 135°24'0 0.0
2018-Jan-11 07:29N 34°32' E 135°24'0 0.0
2018-Jan-11 06:59N 34°32' E 135°24'0 0.0
2018-Jan-11 06:29N 34°32' E 135°24'0 0.0
2018-Jan-11 05:59N 34°32' E 135°24'0 0.0
2018-Jan-11 05:29N 34°32' E 135°24'0 0.0
2018-Jan-11 04:59N 34°32' E 135°24'0 0.0
2018-Jan-11 04:29N 34°32' E 135°24'0 0.0
2018-Jan-11 03:56N 34°32' E 135°24'0 0.0
2018-Jan-11 03:29N 34°32' E 135°24'0 0.0
2018-Jan-11 02:59N 34°32' E 135°24'0 0.0
2018-Jan-11 02:29N 34°32' E 135°24'0 0.0
2018-Jan-11 01:59N 34°32' E 135°24'0 0.0
2018-Jan-11 01:29N 34°32' E 135°24'0 0.0
2018-Jan-11 00:59N 34°32' E 135°24'0 0.0
2018-Jan-11 00:29N 34°32' E 135°24'0 0.0
2018-Jan-10 23:58N 34°32' E 135°24'0 0.1
2018-Jan-10 23:28N 34°32' E 135°24'2 4.2
2018-Jan-10 23:01N 34°32' E 135°22'2 3.3
2018-Jan-10 22:28N 34°32' E 135°20'0 0.1
2018-Jan-10 21:58N 34°32' E 135°20'0 0.0
2018-Jan-10 21:25N 34°32' E 135°20'0 0.1
2018-Jan-10 20:58N 34°32' E 135°20'0 0.1
2018-Jan-10 20:28N 34°32' E 135°20'0 0.1
2018-Jan-10 19:55N 34°32' E 135°20'0 0.1
2018-Jan-10 19:28N 34°32' E 135°20'0 0.1
2018-Jan-10 18:55N 34°32' E 135°20'0 0.0
2018-Jan-10 18:28N 34°32' E 135°20'0 0.0
2018-Jan-10 17:55N 34°32' E 135°20'0 0.0
2018-Jan-10 17:25N 34°32' E 135°20'0 0.1
2018-Jan-10 16:58N 34°32' E 135°20'0 0.0
2018-Jan-10 16:28N 34°32' E 135°20'0 0.0
2018-Jan-10 15:58N 34°32' E 135°20'0 0.0
2018-Jan-10 15:28N 34°32' E 135°20'0 0.0
2018-Jan-10 14:58N 34°32' E 135°20'0 0.0
2018-Jan-10 14:28N 34°32' E 135°20'0 0.0
2018-Jan-10 13:58N 34°32' E 135°20'0 0.0
2018-Jan-10 13:28N 34°32' E 135°20'1 1.5
2018-Jan-10 13:00N 34°32' E 135°19'713.9
2018-Jan-10 12:30N 34°34' E 135°11'815.5
2018-Jan-10 12:01N 34°36' E 135°02'815.9
2018-Jan-10 11:31N 34°35' E 134°53'815.6
2018-Jan-10 11:01N 34°32' E 134°44'714.9
2018-Jan-10 10:30N 34°29' E 134°36'714.7
2018-Jan-10 10:01N 34°26' E 134°27'15 0.8
2018-Jan-09 16:07N 34°26' E 134°09'313.7
2018-Jan-09 15:53N 34°24' E 134°13'613.4
2018-Jan-09 15:24N 34°25' E 134°21'713.3
2018-Jan-09 14:54N 34°27' E 134°28'513.0
2018-Jan-09 14:30N 34°29' E 134°34'612.8
2018-Jan-09 14:00N 34°32' E 134°41'612.5
2018-Jan-09 13:30N 34°34' E 134°48'611.9
2018-Jan-09 13:00N 34°36' E 134°55'510.9
2018-Jan-09 12:30N 34°37' E 135°01'510.3
2018-Jan-09 12:00N 34°36' E 135°07'612.6
2018-Jan-09 11:30N 34°36' E 135°15'712.9
2018-Jan-09 11:00N 34°33' E 135°22'3 5.0
2018-Jan-09 10:30N 34°32' E 135°24'0 0.0
2018-Jan-09 10:00N 34°32' E 135°24'0 0.0
2018-Jan-09 09:30N 34°32' E 135°24'0 0.0
2018-Jan-09 08:54N 34°32' E 135°24'0 0.0
2018-Jan-09 08:30N 34°32' E 135°24'0 0.0
2018-Jan-09 08:00N 34°32' E 135°24'0 0.0
2018-Jan-09 07:30N 34°32' E 135°24'  
Track history (hours):
 
Tides and Currents Weather Stations Pressure Air Temp Water Temp Dewpoint Dewpoint Depression Visibility Wind Speed Wind Dir Waves Ship Positions

Naikaimaru No.25

Last reported at 2018-Jan-19 07:00 UTC. Time now 2018-Jan-19 07:14 UTC.
Position N 34°06' E 132°23'.

Length 104 m; draft 6.2 m.

Type: Tanker. MMSI: 431501829.

Date/timePositionNaut miles runAvg speedWind from/ knotsBaromVisibWave heightAir tempDewpointWater temp
2018-Jan-19 07:00N 34°06' E 132°23'714.1
2018-Jan-19 06:31N 34°11' E 132°16'2 3.4
2018-Jan-19 06:00N 34°12' E 132°15'0 0.0
2018-Jan-19 05:31N 34°12' E 132°15'0 0.0
2018-Jan-19 01:21N 34°12' E 132°15'0 0.0
2018-Jan-19 00:57N 34°12' E 132°15'0 0.0
2018-Jan-19 00:27N 34°12' E 132°15'0 0.0
2018-Jan-18 23:57N 34°12' E 132°15'0 0.3
2018-Jan-18 23:29N 34°12' E 132°15'2 3.3
2018-Jan-18 23:00N 34°11' E 132°16'0 0.1
2018-Jan-18 22:26N 34°11' E 132°17'0 0.1
2018-Jan-18 21:59N 34°11' E 132°16'0 0.1
2018-Jan-18 21:29N 34°11' E 132°17'0 0.1
2018-Jan-18 20:59N 34°11' E 132°16'0 0.0
2018-Jan-18 20:29N 34°11' E 132°16'0 0.0
2018-Jan-18 19:50N 34°11' E 132°16'0 0.0
2018-Jan-18 19:29N 34°11' E 132°16'0 0.0
2018-Jan-18 18:59N 34°11' E 132°16'0 0.0
2018-Jan-18 18:29N 34°11' E 132°16'0 0.1
2018-Jan-18 17:59N 34°11' E 132°17'0 0.1
2018-Jan-18 17:29N 34°11' E 132°16'0 0.0
2018-Jan-18 16:59N 34°11' E 132°16'0 0.0
2018-Jan-18 16:29N 34°11' E 132°16'0 0.0
2018-Jan-18 15:56N 34°11' E 132°16'0 0.0
2018-Jan-18 15:29N 34°11' E 132°16'0 0.0
2018-Jan-18 14:50N 34°11' E 132°16'0 0.0
2018-Jan-18 14:23N 34°11' E 132°16'0 0.0
2018-Jan-18 13:59N 34°11' E 132°16'0 0.1
2018-Jan-18 13:26N 34°11' E 132°17'0 0.0
2018-Jan-18 12:59N 34°11' E 132°17'0 0.0
2018-Jan-18 12:29N 34°11' E 132°17'0 0.0
2018-Jan-18 11:56N 34°11' E 132°17'0 0.1
2018-Jan-18 11:31N 34°11' E 132°17'612.6
2018-Jan-18 11:00N 34°07' E 132°22'714.7
2018-Jan-18 10:30N 34°02' E 132°28'714.3
2018-Jan-18 10:00N 34°04' E 132°37'713.2
2018-Jan-18 09:30N 34°05' E 132°45'  
2018-Jan-12 07:31N 34°42' E 139°36'515.9
2018-Jan-12 07:13N 34°40' E 139°31'316.2
2018-Jan-12 07:00N 34°38' E 139°27'815.4
2018-Jan-12 06:30N 34°35' E 139°18'815.5
2018-Jan-12 06:00N 34°34' E 139°09'815.6
2018-Jan-12 05:30N 34°32' E 139°00'1315.3
2018-Jan-12 04:39N 34°28' E 138°45'215.7
2018-Jan-12 04:30N 34°28' E 138°42'915.6
2018-Jan-12 03:57N 34°25' E 138°32'714.9
2018-Jan-12 03:30N 34°23' E 138°24'1713.8
2018-Jan-12 02:15N 34°17' E 138°05'15411.6
2018-Jan-11 12:59N 33°52' E 135°01'714.5
2018-Jan-11 12:30N 33°59' E 135°00'714.2
2018-Jan-11 12:01N 34°06' E 134°60'714.3
2018-Jan-11 11:30N 34°13' E 134°59'714.5
2018-Jan-11 11:01N 34°20' E 134°60'713.6
2018-Jan-11 10:31N 34°25' E 135°06'713.5
2018-Jan-11 10:00N 34°29' E 135°13'713.2
2018-Jan-11 09:30N 34°32' E 135°20'4 7.8
2018-Jan-11 09:00N 34°32' E 135°24'0 0.1
2018-Jan-11 08:30N 34°32' E 135°24'0 0.0
2018-Jan-11 07:59N 34°32' E 135°24'0 0.0
2018-Jan-11 07:29N 34°32' E 135°24'0 0.0
2018-Jan-11 06:59N 34°32' E 135°24'0 0.0
2018-Jan-11 06:29N 34°32' E 135°24'0 0.0
2018-Jan-11 05:59N 34°32' E 135°24'0 0.0
2018-Jan-11 05:29N 34°32' E 135°24'0 0.0
2018-Jan-11 04:59N 34°32' E 135°24'0 0.0
2018-Jan-11 04:29N 34°32' E 135°24'0 0.0
2018-Jan-11 03:56N 34°32' E 135°24'0 0.0
2018-Jan-11 03:29N 34°32' E 135°24'0 0.0
2018-Jan-11 02:59N 34°32' E 135°24'0 0.0
2018-Jan-11 02:29N 34°32' E 135°24'0 0.0
2018-Jan-11 01:59N 34°32' E 135°24'0 0.0
2018-Jan-11 01:29N 34°32' E 135°24'0 0.0
2018-Jan-11 00:59N 34°32' E 135°24'0 0.0
2018-Jan-11 00:29N 34°32' E 135°24'0 0.0
2018-Jan-10 23:58N 34°32' E 135°24'0 0.1
2018-Jan-10 23:28N 34°32' E 135°24'2 4.2
2018-Jan-10 23:01N 34°32' E 135°22'2 3.3
2018-Jan-10 22:28N 34°32' E 135°20'0 0.1
2018-Jan-10 21:58N 34°32' E 135°20'0 0.0
2018-Jan-10 21:25N 34°32' E 135°20'0 0.1
2018-Jan-10 20:58N 34°32' E 135°20'0 0.1
2018-Jan-10 20:28N 34°32' E 135°20'0 0.1
2018-Jan-10 19:55N 34°32' E 135°20'0 0.1
2018-Jan-10 19:28N 34°32' E 135°20'0 0.1
2018-Jan-10 18:55N 34°32' E 135°20'0 0.0
2018-Jan-10 18:28N 34°32' E 135°20'0 0.0
2018-Jan-10 17:55N 34°32' E 135°20'0 0.0
2018-Jan-10 17:25N 34°32' E 135°20'0 0.1
2018-Jan-10 16:58N 34°32' E 135°20'0 0.0
2018-Jan-10 16:28N 34°32' E 135°20'0 0.0
2018-Jan-10 15:58N 34°32' E 135°20'0 0.0
2018-Jan-10 15:28N 34°32' E 135°20'0 0.0
2018-Jan-10 14:58N 34°32' E 135°20'0 0.0
2018-Jan-10 14:28N 34°32' E 135°20'0 0.0
2018-Jan-10 13:58N 34°32' E 135°20'0 0.0
2018-Jan-10 13:28N 34°32' E 135°20'1 1.5
2018-Jan-10 13:00N 34°32' E 135°19'713.9
2018-Jan-10 12:30N 34°34' E 135°11'815.5
2018-Jan-10 12:01N 34°36' E 135°02'815.9
2018-Jan-10 11:31N 34°35' E 134°53'815.6
2018-Jan-10 11:01N 34°32' E 134°44'714.9
2018-Jan-10 10:30N 34°29' E 134°36'714.7
2018-Jan-10 10:01N 34°26' E 134°27'15 0.8
2018-Jan-09 16:07N 34°26' E 134°09'313.7
2018-Jan-09 15:53N 34°24' E 134°13'613.4
2018-Jan-09 15:24N 34°25' E 134°21'713.3
2018-Jan-09 14:54N 34°27' E 134°28'513.0
2018-Jan-09 14:30N 34°29' E 134°34'612.8
2018-Jan-09 14:00N 34°32' E 134°41'612.5
2018-Jan-09 13:30N 34°34' E 134°48'611.9
2018-Jan-09 13:00N 34°36' E 134°55'510.9
2018-Jan-09 12:30N 34°37' E 135°01'510.3
2018-Jan-09 12:00N 34°36' E 135°07'612.6
2018-Jan-09 11:30N 34°36' E 135°15'712.9
2018-Jan-09 11:00N 34°33' E 135°22'3 5.0
2018-Jan-09 10:30N 34°32' E 135°24'0 0.0
2018-Jan-09 10:00N 34°32' E 135°24'0 0.0
2018-Jan-09 09:30N 34°32' E 135°24'0 0.0
2018-Jan-09 08:54N 34°32' E 135°24'0 0.0
2018-Jan-09 08:30N 34°32' E 135°24'0 0.0
2018-Jan-09 08:00N 34°32' E 135°24'0 0.0
2018-Jan-09 07:30N 34°32' E 135°24'  

Dump ship's entire track history